Time;durP1;ratioP1;P1;durP2;ratioP2;P2;SDS_P1;SDS_P2;PMS_P1;PMS_P2;Temp;Humidity;BMP_temperature;BMP_pressure;BME280_temperature;BME280_humidity;BME280_pressure;Samples;Min_cycle;Max_cycle;Signal;HPM_P1;HPM_P2
2021/01/15 00:01:35;;;;;;;26.13;13.23;;;1.50;99.90;;;;;;5093153;28;20111;-69
2021/01/15 00:04:01;;;;;;;24.52;12.50;;;1.40;99.90;;;;;;5094642;28;20490;-70
2021/01/15 00:06:26;;;;;;;22.13;13.10;;;1.50;99.90;;;;;;5094861;28;20116;-69
2021/01/15 00:08:53;;;;;;;24.17;13.63;;;1.50;99.90;;;;;;5094808;28;20024;-70
2021/01/15 00:11:29;;;;;;;22.55;13.48;;;1.50;99.90;;;;;;5094801;28;20024;-71
2021/01/15 00:13:56;;;;;;;24.88;14.15;;;1.50;99.90;;;;;;5093535;28;20020;-71
2021/01/15 00:16:28;;;;;;;24.02;13.40;;;1.50;99.90;;;;;;5094133;28;20024;-70
2021/01/15 00:18:55;;;;;;;33.85;15.80;;;1.50;99.90;;;;;;5094644;28;20016;-70
2021/01/15 00:21:25;;;;;;;29.00;14.93;;;1.40;99.90;;;;;;5094612;28;20035;-70
2021/01/15 00:23:52;;;;;;;31.58;14.82;;;1.40;99.90;;;;;;5094180;28;20028;-68
2021/01/15 00:26:18;;;;;;;33.63;15.70;;;1.40;99.90;;;;;;5094505;28;20067;-70
2021/01/15 00:28:44;;;;;;;31.20;15.88;;;1.50;99.90;;;;;;5094508;28;20019;-71
2021/01/15 00:31:10;;;;;;;30.70;16.83;;;1.50;99.90;;;;;;5094217;28;20370;-71
2021/01/15 00:33:36;;;;;;;31.65;17.15;;;1.50;99.90;;;;;;5093818;28;20016;-70
2021/01/15 00:36:02;;;;;;;31.73;17.92;;;1.50;99.90;;;;;;5093834;28;20020;-70
2021/01/15 00:38:27;;;;;;;33.00;17.52;;;1.40;99.90;;;;;;5094131;28;20020;-70
2021/01/15 00:41:01;;;;;;;35.83;18.58;;;1.40;99.90;;;;;;5094334;28;20099;-70
2021/01/15 00:43:27;;;;;;;40.42;19.25;;;1.40;99.90;;;;;;5093748;28;20059;-70
2021/01/15 00:45:52;;;;;;;33.25;18.83;;;1.40;99.90;;;;;;5109899;28;20027;-70
2021/01/15 00:48:18;;;;;;;39.28;20.48;;;1.40;99.90;;;;;;5094235;28;20024;-70
2021/01/15 00:50:44;;;;;;;38.97;20.42;;;1.40;99.90;;;;;;5093688;28;20035;-70
2021/01/15 00:53:09;;;;;;;40.97;20.23;;;1.40;99.90;;;;;;5092338;28;20044;-71
2021/01/15 00:55:35;;;;;;;38.63;19.30;;;1.40;99.90;;;;;;5094196;28;20030;-71
2021/01/15 00:58:02;;;;;;;40.47;20.67;;;1.40;99.90;;;;;;5094156;28;20024;-70
2021/01/15 01:00:28;;;;;;;41.15;21.27;;;1.40;99.90;;;;;;5092280;28;20478;-70
2021/01/15 01:02:54;;;;;;;42.42;21.10;;;1.40;99.90;;;;;;5093554;28;20059;-70
2021/01/15 01:05:21;;;;;;;40.70;20.85;;;1.40;99.90;;;;;;5094084;28;20024;-70
2021/01/15 01:07:47;;;;;;;39.97;20.13;;;1.30;99.90;;;;;;5093787;28;20020;-70
2021/01/15 01:10:13;;;;;;;44.65;23.08;;;1.40;99.90;;;;;;5094032;28;20477;-71
2021/01/15 01:12:40;;;;;;;48.20;22.45;;;1.30;99.90;;;;;;5093923;28;20050;-70
2021/01/15 01:15:08;;;;;;;40.45;22.60;;;1.30;99.90;;;;;;5094036;28;20020;-70
2021/01/15 01:17:33;;;;;;;49.08;23.45;;;1.30;99.90;;;;;;5093714;28;20012;-70
2021/01/15 01:19:59;;;;;;;49.17;22.60;;;1.30;99.90;;;;;;5093375;28;20035;-70
2021/01/15 01:22:24;;;;;;;44.47;22.95;;;1.30;99.90;;;;;;5093637;28;20031;-70
2021/01/15 01:24:50;;;;;;;47.67;22.77;;;1.30;99.90;;;;;;5093631;28;20024;-70
2021/01/15 01:27:15;;;;;;;48.92;24.38;;;1.30;99.90;;;;;;5093578;28;20031;-70
2021/01/15 01:29:41;;;;;;;47.60;23.35;;;1.30;99.90;;;;;;5092139;28;20032;-70
2021/01/15 01:32:06;;;;;;;47.65;22.58;;;1.30;99.90;;;;;;5093794;28;20024;-70
2021/01/15 01:34:31;;;;;;;47.83;22.67;;;1.30;99.90;;;;;;5094326;28;20024;-71
2021/01/15 01:36:57;;;;;;;47.10;22.90;;;1.30;99.90;;;;;;5097488;28;20108;-70
2021/01/15 01:39:22;;;;;;;44.15;23.08;;;1.20;99.90;;;;;;5097686;28;20020;-70
2021/01/15 01:41:48;;;;;;;42.30;22.98;;;1.20;99.90;;;;;;5097077;28;20109;-70
2021/01/15 01:44:13;;;;;;;45.92;23.13;;;1.20;99.90;;;;;;5097596;28;20042;-70
2021/01/15 01:46:40;;;;;;;44.83;24.10;;;1.20;99.90;;;;;;5097268;28;20056;-71
2021/01/15 01:49:07;;;;;;;52.67;24.13;;;1.20;99.90;;;;;;5097253;28;20013;-70
2021/01/15 01:51:32;;;;;;;47.50;24.02;;;1.20;99.90;;;;;;5096617;28;20103;-71
2021/01/15 01:53:59;;;;;;;51.67;23.08;;;1.20;99.90;;;;;;5097312;28;20112;-71
2021/01/15 01:56:25;;;;;;;50.28;23.55;;;1.20;99.90;;;;;;5097374;28;20048;-71
2021/01/15 01:58:52;;;;;;;56.03;24.17;;;1.20;99.90;;;;;;5096313;28;20020;-70
2021/01/15 02:01:18;;;;;;;55.50;25.60;;;1.10;99.90;;;;;;5096990;28;20020;-71
2021/01/15 02:03:44;;;;;;;51.67;24.20;;;1.20;99.90;;;;;;5097231;28;20059;-70
2021/01/15 02:06:14;;;;;;;54.65;25.73;;;1.20;99.90;;;;;;5096011;28;20470;-71
2021/01/15 02:08:40;;;;;;;54.03;25.60;;;1.20;99.90;;;;;;5097130;28;20407;-70
2021/01/15 02:11:35;;;;;;;50.85;24.42;;;1.20;99.90;;;;;;5097083;28;20069;-71
2021/01/15 02:14:14;;;;;;;63.25;27.20;;;1.10;99.90;;;;;;5096957;28;20025;-70
2021/01/15 02:16:40;;;;;;;63.83;27.45;;;1.10;99.90;;;;;;5096674;28;20051;-70
2021/01/15 02:19:46;;;;;;;57.88;25.25;;;1.10;99.90;;;;;;5096918;28;20031;-70
2021/01/15 02:22:40;;;;;;;56.30;25.50;;;1.00;99.90;;;;;;5096887;27;20027;-71
2021/01/15 02:25:35;;;;;;;65.80;27.48;;;1.10;99.90;;;;;;5096461;28;20031;-70
2021/01/15 02:28:40;;;;;;;61.88;26.55;;;1.10;99.90;;;;;;5096141;28;20020;-70
2021/01/15 02:34:24;;;;;;;63.08;27.33;;;1.00;99.90;;;;;;5112273;27;20109;-70
2021/01/15 02:37:20;;;;;;;66.32;28.63;;;1.00;99.90;;;;;;5111876;28;20081;-70
2021/01/15 02:40:36;;;;;;;56.40;26.25;;;1.00;99.90;;;;;;5111290;28;20020;-70
2021/01/15 02:43:03;;;;;;;57.20;25.30;;;1.00;99.90;;;;;;5111501;28;20380;-70
2021/01/15 02:45:34;;;;;;;63.15;27.92;;;0.90;99.90;;;;;;5111770;28;20030;-70
2021/01/15 02:48:03;;;;;;;63.08;27.20;;;0.90;99.90;;;;;;5110031;28;20104;-71
2021/01/15 02:50:29;;;;;;;58.60;27.10;;;0.90;99.90;;;;;;5111677;28;20016;-69
2021/01/15 02:52:56;;;;;;;60.00;27.27;;;0.90;99.90;;;;;;5111568;28;20127;-71
2021/01/15 02:55:23;;;;;;;59.63;26.48;;;0.90;99.90;;;;;;5111040;28;20020;-71
2021/01/15 02:57:49;;;;;;;61.00;25.90;;;0.90;99.90;;;;;;5111277;28;20012;-70
2021/01/15 03:00:17;;;;;;;64.18;27.90;;;0.80;99.90;;;;;;5110353;28;20024;-70
2021/01/15 03:05:48;;;;;;;62.72;27.52;;;0.80;99.90;;;;;;5091804;27;20586;-70
2021/01/15 03:08:15;;;;;;;;;;;0.70;99.90;;;;;;5092050;28;20103;-70
2021/01/15 03:10:41;;;;;;;60.78;26.40;;;0.70;99.90;;;;;;5091306;28;19911;-71
2021/01/15 03:13:09;;;;;;;60.25;26.92;;;0.70;99.90;;;;;;5091488;28;20020;-71
2021/01/15 03:15:37;;;;;;;62.83;28.60;;;0.70;99.90;;;;;;5091452;28;20051;-71
2021/01/15 03:18:05;;;;;;;59.63;27.60;;;0.60;99.90;;;;;;5091126;28;20103;-71
2021/01/15 03:20:31;;;;;;;60.33;27.10;;;0.60;99.90;;;;;;5091388;28;20047;-70
2021/01/15 03:22:57;;;;;;;60.53;27.70;;;0.60;99.90;;;;;;5091296;28;20450;-69
2021/01/15 03:25:23;;;;;;;63.35;27.50;;;0.60;99.90;;;;;;5091207;28;20029;-70
2021/01/15 03:27:50;;;;;;;60.33;27.92;;;0.70;99.90;;;;;;5091241;28;20035;-70
2021/01/15 03:30:23;;;;;;;64.93;28.35;;;0.60;99.90;;;;;;5089718;28;20020;-70
2021/01/15 03:32:50;;;;;;;56.30;22.10;;;0.60;99.90;;;;;;5089886;28;20024;-70
2021/01/15 03:35:23;;;;;;;60.70;27.98;;;0.50;99.90;;;;;;5091036;28;20032;-70
2021/01/15 03:37:58;;;;;;;61.15;29.40;;;0.50;99.90;;;;;;5091050;28;20043;-70
2021/01/15 03:40:26;;;;;;;62.83;28.10;;;0.50;99.90;;;;;;5090983;28;20476;-69
2021/01/15 03:42:52;;;;;;;65.95;30.55;;;0.50;99.90;;;;;;5089107;28;20043;-70
2021/01/15 03:45:18;;;;;;;55.60;26.02;;;0.50;99.90;;;;;;5090790;28;20028;-69
2021/01/15 03:47:44;;;;;;;63.83;29.27;;;0.50;99.90;;;;;;5090549;28;20039;-70
2021/01/15 03:50:10;;;;;;;60.75;29.48;;;0.40;99.90;;;;;;5089527;28;20453;-70
2021/01/15 03:52:35;;;;;;;64.55;30.15;;;0.30;99.90;;;;;;5090696;28;20016;-70
2021/01/15 03:55:01;;;;;;;69.78;29.75;;;0.30;99.90;;;;;;5089224;28;20129;-70
2021/01/15 03:57:26;;;;;;;63.05;29.70;;;0.30;99.90;;;;;;5090619;28;20024;-71
2021/01/15 03:59:52;;;;;;;65.63;28.75;;;0.30;99.90;;;;;;5088779;28;20036;-71
2021/01/15 04:02:18;;;;;;;64.43;30.27;;;0.30;99.90;;;;;;5090441;28;20096;-70
2021/01/15 04:04:48;;;;;;;65.82;29.38;;;0.30;99.90;;;;;;5102507;28;20044;-70
2021/01/15 04:07:15;;;;;;;66.30;29.30;;;0.30;99.90;;;;;;5110530;28;20023;-70
2021/01/15 04:09:41;;;;;;;67.22;30.40;;;0.30;99.90;;;;;;5110805;28;20012;-70
2021/01/15 04:12:06;;;;;;;64.65;28.63;;;0.30;99.90;;;;;;5110726;28;20418;-70
2021/01/15 04:14:32;;;;;;;64.95;28.95;;;0.30;99.90;;;;;;5092294;28;20032;-70
2021/01/15 04:16:57;;;;;;;69.65;31.15;;;0.30;99.90;;;;;;5097233;28;20028;-70
2021/01/15 04:19:23;;;;;;;66.85;30.42;;;0.20;99.90;;;;;;5097006;28;20067;-71
2021/01/15 04:21:53;;;;;;;69.55;30.88;;;0.30;99.90;;;;;;5078312;28;20051;-71
2021/01/15 04:24:19;;;;;;;71.72;30.05;;;0.30;99.90;;;;;;5096612;28;20376;-70
2021/01/15 04:26:44;;;;;;;66.72;29.60;;;0.20;99.90;;;;;;5096891;28;20028;-70
2021/01/15 04:29:10;;;;;;;73.18;31.50;;;0.20;99.90;;;;;;5078845;28;20024;-71
2021/01/15 04:31:37;;;;;;;70.13;31.00;;;0.20;99.90;;;;;;5096773;28;20042;-70
2021/01/15 04:34:03;;;;;;;70.40;29.52;;;0.20;99.90;;;;;;5078323;28;20047;-71
2021/01/15 04:36:30;;;;;;;74.53;33.53;;;0.20;99.90;;;;;;5096692;28;20373;-70
2021/01/15 04:38:55;;;;;;;74.72;32.05;;;0.30;99.90;;;;;;5096088;28;20055;-69
2021/01/15 04:41:22;;;;;;;74.65;30.25;;;0.20;99.90;;;;;;5096615;28;20028;-70
2021/01/15 04:43:54;;;;;;;74.03;29.77;;;0.20;99.90;;;;;;5096499;28;20066;-69
2021/01/15 04:46:21;;;;;;;69.90;30.75;;;0.20;99.90;;;;;;5095942;28;20013;-70
2021/01/15 04:48:49;;;;;;;70.80;31.58;;;0.20;99.90;;;;;;5096168;28;20024;-69
2021/01/15 04:51:19;;;;;;;73.43;30.40;;;0.20;99.90;;;;;;5095841;28;20020;-71
2021/01/15 04:53:54;;;;;;;73.32;29.50;;;0.20;99.90;;;;;;5078526;28;20373;-69
2021/01/15 04:56:44;;;;;;;70.72;29.60;;;0.20;99.90;;;;;;5096242;28;20024;-70
2021/01/15 04:59:13;;;;;;;71.68;29.52;;;0.30;99.90;;;;;;5095799;28;20385;-70
2021/01/15 05:01:40;;;;;;;72.15;31.08;;;0.20;99.90;;;;;;5095603;28;20117;-70
2021/01/15 05:04:09;;;;;;;68.45;28.55;;;0.30;99.90;;;;;;5095613;28;20036;-71
2021/01/15 05:06:45;;;;;;;68.53;29.55;;;0.30;99.90;;;;;;5078465;28;20020;-70
2021/01/15 05:09:13;;;;;;;66.45;30.10;;;0.20;99.90;;;;;;5095788;28;20020;-71
2021/01/15 05:11:41;;;;;;;70.03;30.33;;;0.20;99.90;;;;;;5095464;28;20044;-69
2021/01/15 05:14:10;;;;;;;73.03;29.92;;;0.30;99.90;;;;;;5095987;28;20129;-70
2021/01/15 05:16:38;;;;;;;71.47;31.80;;;0.30;99.90;;;;;;5095894;28;20024;-69
2021/01/15 05:19:04;;;;;;;67.22;29.52;;;0.30;99.90;;;;;;5095582;28;20074;-69
2021/01/15 05:21:31;;;;;;;70.38;31.83;;;0.30;99.90;;;;;;5077485;28;20066;-69
2021/01/15 05:23:57;;;;;;;74.15;29.60;;;0.20;99.90;;;;;;5060512;28;20024;-70
2021/01/15 05:26:24;;;;;;;73.00;29.92;;;0.20;99.90;;;;;;5095632;28;20024;-70
2021/01/15 05:28:50;;;;;;;70.95;31.42;;;0.20;99.90;;;;;;5094800;28;20074;-70
2021/01/15 05:31:15;;;;;;;71.43;30.70;;;0.20;99.90;;;;;;5077155;28;20381;-70
2021/01/15 05:33:54;;;;;;;72.22;28.63;;;0.30;99.90;;;;;;5095592;28;20078;-70
2021/01/15 05:36:35;;;;;;;69.95;29.40;;;0.30;99.90;;;;;;5094951;28;20024;-71
2021/01/15 05:39:22;;;;;;;69.63;28.95;;;0.30;99.90;;;;;;5094901;28;20024;-70
2021/01/15 05:41:49;;;;;;;68.97;29.70;;;0.40;99.90;;;;;;5094851;28;20024;-70
2021/01/15 05:44:32;;;;;;;66.25;29.15;;;0.30;99.90;;;;;;5095280;28;20028;-71
2021/01/15 05:47:00;;;;;;;;;;;0.40;99.90;;;;;;5095490;28;20024;-70
2021/01/15 05:49:26;;;;;;;66.47;27.80;;;0.30;99.90;;;;;;5095018;28;19904;-71
2021/01/15 05:51:51;;;;;;;68.32;29.88;;;0.30;99.90;;;;;;5095202;28;20028;-70
2021/01/15 05:54:33;;;;;;;64.82;28.92;;;0.30;99.90;;;;;;5095174;28;20089;-70
2021/01/15 05:57:00;;;;;;;69.38;29.20;;;0.30;99.90;;;;;;5076623;28;20047;-70
2021/01/15 05:59:26;;;;;;;69.40;29.30;;;0.30;99.90;;;;;;5094780;28;20028;-70
2021/01/15 06:01:54;;;;;;;63.58;27.58;;;0.40;99.90;;;;;;5094780;28;20028;-70
2021/01/15 06:04:33;;;;;;;66.53;29.58;;;0.40;99.90;;;;;;5094496;28;20374;-70
2021/01/15 06:07:17;;;;;;;66.60;29.25;;;0.40;99.90;;;;;;5077155;28;20040;-70
2021/01/15 06:09:44;;;;;;;58.38;27.05;;;0.50;99.90;;;;;;5094672;28;20026;-70
2021/01/15 06:12:12;;;;;;;68.93;29.05;;;0.40;99.90;;;;;;5094908;28;20036;-70
2021/01/15 06:15:10;;;;;;;61.05;27.42;;;0.40;99.90;;;;;;5094826;28;20023;-70
2021/01/15 06:17:25;;;;;;;61.33;27.25;;;0.40;99.90;;;;;;5094049;28;20110;-70
2021/01/15 06:19:53;;;;;;;61.53;27.67;;;0.50;99.90;;;;;;5094717;28;20020;-71
2021/01/15 06:22:28;;;;;;;62.63;28.75;;;0.50;99.90;;;;;;5076038;28;20024;-70
2021/01/15 06:25:03;;;;;;;62.95;28.60;;;0.60;99.90;;;;;;5094601;28;20043;-70
2021/01/15 06:27:38;;;;;;;64.25;28.10;;;0.50;99.90;;;;;;5094306;28;20034;-70
2021/01/15 06:30:07;;;;;;;66.93;29.27;;;0.50;99.90;;;;;;5093940;28;20380;-71
2021/01/15 06:32:32;;;;;;;62.60;28.15;;;0.50;99.90;;;;;;5075690;28;20024;-71
2021/01/15 06:34:58;;;;;;;67.93;27.33;;;0.50;99.90;;;;;;5093759;28;20469;-70
2021/01/15 06:37:23;;;;;;;64.20;29.05;;;0.50;99.90;;;;;;5094042;28;20488;-71
2021/01/15 06:40:08;;;;;;;62.08;27.83;;;0.50;99.90;;;;;;5093431;28;20032;-71
2021/01/15 06:42:49;;;;;;;64.68;29.30;;;0.60;99.90;;;;;;5093748;28;20020;-70
2021/01/15 06:45:16;;;;;;;57.60;27.92;;;0.50;99.90;;;;;;5075644;28;20028;-70
2021/01/15 06:47:43;;;;;;;63.65;28.45;;;0.50;99.90;;;;;;5093823;28;20388;-71
2021/01/15 06:50:14;;;;;;;66.15;29.48;;;0.50;99.90;;;;;;5094209;28;20020;-71
2021/01/15 06:52:42;;;;;;;64.40;29.70;;;0.50;99.90;;;;;;5094085;28;20066;-70
2021/01/15 06:55:14;;;;;;;68.65;30.92;;;0.40;99.90;;;;;;5094105;28;20020;-70
2021/01/15 06:57:45;;;;;;;65.18;29.17;;;0.50;99.90;;;;;;5093572;28;20034;-70
2021/01/15 07:00:14;;;;;;;68.55;29.92;;;0.50;99.90;;;;;;5093775;28;20031;-71
2021/01/15 07:03:08;;;;;;;70.45;30.23;;;0.40;99.90;;;;;;5076051;28;20081;-71
2021/01/15 07:05:45;;;;;;;70.82;30.02;;;0.50;99.90;;;;;;5093310;28;20120;-71
2021/01/15 07:08:13;;;;;;;64.55;28.05;;;0.50;99.90;;;;;;5094069;28;20023;-71
2021/01/15 07:10:39;;;;;;;69.65;30.20;;;0.40;99.90;;;;;;5094034;28;20020;-70
2021/01/15 07:13:09;;;;;;;62.83;28.98;;;0.40;99.90;;;;;;5093599;28;20016;-70
2021/01/15 07:15:40;;;;;;;67.35;29.45;;;0.50;99.90;;;;;;5093693;28;20020;-73
2021/01/15 07:18:23;;;;;;;64.63;29.00;;;0.50;99.90;;;;;;5093878;28;20069;-73
2021/01/15 07:20:55;;;;;;;62.30;28.25;;;0.50;99.90;;;;;;5093942;28;20461;-73
2021/01/15 07:23:50;;;;;;;68.15;30.88;;;0.50;99.90;;;;;;5075159;28;20036;-73
2021/01/15 07:26:16;;;;;;;68.30;29.25;;;0.50;99.90;;;;;;5093122;28;20024;-73
2021/01/15 07:28:43;;;;;;;65.05;28.67;;;0.50;99.90;;;;;;5093704;28;20384;-73
2021/01/15 07:31:22;;;;;;;73.80;30.52;;;0.40;99.90;;;;;;5093410;28;20434;-74
2021/01/15 07:33:53;;;;;;;69.18;29.63;;;0.40;99.90;;;;;;5093632;28;20027;-74
2021/01/15 07:36:36;;;;;;;66.68;29.02;;;0.40;99.90;;;;;;5087962;28;20060;-76
2021/01/15 07:39:11;;;;;;;69.72;31.20;;;0.40;99.90;;;;;;5092541;28;20031;-75
2021/01/15 07:41:39;;;;;;;72.32;29.00;;;0.40;99.90;;;;;;5086236;28;20431;-75
2021/01/15 07:47:03;;;;;;;61.70;28.98;;;0.40;99.90;;;;;;5111094;27;20105;-75
2021/01/15 07:49:45;;;;;;;66.60;30.77;;;0.40;99.90;;;;;;5110985;28;20059;-74
2021/01/15 07:52:12;;;;;;;61.28;27.75;;;0.40;99.90;;;;;;5111101;28;20116;-74
2021/01/15 07:57:21;;;;;;;66.53;28.67;;;0.40;99.90;;;;;;5110368;27;20355;-70
2021/01/15 07:59:47;;;;;;;77.00;31.20;;;0.40;99.90;;;;;;5098775;28;20039;-74
2021/01/15 08:02:16;;;;;;;66.38;28.95;;;0.40;99.90;;;;;;5095612;28;20561;-72
2021/01/15 08:04:42;;;;;;;61.72;28.88;;;0.40;99.90;;;;;;5089302;28;20027;-72
2021/01/15 08:09:44;;;;;;;70.97;39.53;;;0.50;99.90;;;;;;5110151;27;20386;-72
2021/01/15 08:12:09;;;;;;;70.00;32.47;;;0.50;99.90;;;;;;5111098;28;20039;-72
2021/01/15 08:14:35;;;;;;;67.20;27.67;;;0.60;99.90;;;;;;5110819;28;20063;-72
2021/01/15 08:17:04;;;;;;;63.60;28.42;;;0.60;99.90;;;;;;5111037;28;20107;-72
2021/01/15 08:19:35;;;;;;;62.40;28.52;;;0.60;99.90;;;;;;5110713;28;20028;-72
2021/01/15 08:22:02;;;;;;;62.55;29.75;;;0.50;99.90;;;;;;5111107;28;20473;-73
2021/01/15 08:24:28;;;;;;;59.25;26.23;;;0.50;99.90;;;;;;5110839;28;20034;-73
2021/01/15 08:26:55;;;;;;;64.78;29.02;;;0.60;99.90;;;;;;5110601;28;20024;-72
2021/01/15 08:29:22;;;;;;;61.67;29.23;;;0.60;99.90;;;;;;5110574;28;20046;-72
2021/01/15 08:31:49;;;;;;;66.10;29.63;;;0.60;99.90;;;;;;5111057;28;20058;-71
2021/01/15 08:34:17;;;;;;;65.65;28.85;;;0.60;99.90;;;;;;5110425;28;20103;-71
2021/01/15 08:36:47;;;;;;;68.82;29.13;;;0.70;99.90;;;;;;5110693;28;20188;-71
2021/01/15 08:39:13;;;;;;;63.63;29.50;;;0.70;99.90;;;;;;5109988;28;20019;-71
2021/01/15 08:41:40;;;;;;;63.08;29.38;;;0.70;99.90;;;;;;5109865;28;20020;-71
2021/01/15 08:44:07;;;;;;;56.78;27.23;;;0.70;99.90;;;;;;5109963;28;20055;-71
2021/01/15 08:46:33;;;;;;;62.85;29.33;;;0.80;99.90;;;;;;5108663;28;20473;-72
2021/01/15 08:49:05;;;;;;;57.90;28.15;;;0.80;99.90;;;;;;5088277;28;20036;-72
2021/01/15 08:51:32;;;;;;;64.40;28.42;;;0.90;99.90;;;;;;5088576;28;20026;-72
2021/01/15 08:54:04;;;;;;;64.05;28.55;;;0.90;99.90;;;;;;5107103;28;20016;-71
2021/01/15 08:56:38;;;;;;;63.67;30.15;;;0.90;99.90;;;;;;5092064;28;20026;-71
2021/01/15 08:59:05;;;;;;;64.22;29.73;;;0.90;99.90;;;;;;5109984;28;20043;-72
2021/01/15 09:01:34;;;;;;;63.00;27.80;;;1.10;99.90;;;;;;5109919;28;20354;-73
2021/01/15 09:04:04;;;;;;;62.95;28.25;;;1.10;99.90;;;;;;5107891;28;20019;-71
2021/01/15 09:06:30;;;;;;;54.80;26.25;;;1.10;99.90;;;;;;5109761;28;20480;-72
2021/01/15 09:08:58;;;;;;;58.53;26.83;;;1.30;99.90;;;;;;5109550;28;20044;-72
2021/01/15 09:11:27;;;;;;;58.40;25.67;;;1.30;99.90;;;;;;5109026;28;20026;-72
2021/01/15 09:13:55;;;;;;;63.40;27.55;;;1.30;99.90;;;;;;5109721;28;20016;-72
2021/01/15 09:16:22;;;;;;;61.65;27.27;;;1.40;99.90;;;;;;5109270;28;20031;-72
2021/01/15 09:18:48;;;;;;;58.83;27.25;;;1.40;99.90;;;;;;5109501;28;20015;-72
2021/01/15 09:21:14;;;;;;;58.70;27.88;;;1.40;99.90;;;;;;5095120;28;20103;-73
2021/01/15 09:23:40;;;;;;;56.83;27.38;;;1.40;99.90;;;;;;5095312;28;20111;-71
2021/01/15 09:26:05;;;;;;;52.42;25.60;;;1.50;99.90;;;;;;5094894;28;20477;-71
2021/01/15 09:28:31;;;;;;;53.72;26.10;;;1.60;99.90;;;;;;5094240;28;20051;-71
2021/01/15 09:30:56;;;;;;;54.25;25.67;;;1.60;99.90;;;;;;5095555;28;20401;-71
2021/01/15 09:33:22;;;;;;;53.47;24.75;;;1.60;99.90;;;;;;5095680;28;20020;-71
2021/01/15 09:35:47;;;;;;;53.88;24.77;;;1.70;99.90;;;;;;5095942;28;20024;-71
2021/01/15 09:38:13;;;;;;;48.13;23.83;;;1.80;99.90;;;;;;5093923;28;20465;-71
2021/01/15 09:40:38;;;;;;;53.28;24.67;;;1.80;99.90;;;;;;5095528;28;20039;-72
2021/01/15 09:43:04;;;;;;;52.28;23.88;;;1.90;99.90;;;;;;5093851;28;20024;-72
2021/01/15 09:45:29;;;;;;;51.97;24.70;;;1.80;99.90;;;;;;5094974;28;20127;-72
2021/01/15 09:47:55;;;;;;;50.33;24.58;;;1.70;99.90;;;;;;5094093;28;20016;-73
2021/01/15 09:50:20;;;;;;;54.15;23.75;;;1.80;99.90;;;;;;5095341;28;20024;-73
2021/01/15 09:52:48;;;;;;;46.38;23.50;;;1.90;99.90;;;;;;5093846;28;20031;-71
2021/01/15 09:55:14;;;;;;;48.58;22.83;;;1.90;99.90;;;;;;5095691;28;20028;-71
2021/01/15 09:57:46;;;;;;;52.83;24.67;;;1.90;99.90;;;;;;5094991;28;20032;-71
2021/01/15 10:00:13;;;;;;;54.05;25.40;;;1.90;99.90;;;;;;5093235;28;20031;-71
2021/01/15 10:02:38;;;;;;;51.13;24.80;;;1.90;99.90;;;;;;5094710;28;20032;-70
2021/01/15 10:05:04;;;;;;;49.53;25.05;;;2.00;99.90;;;;;;5095271;28;20081;-74
2021/01/15 10:07:30;;;;;;;49.40;25.00;;;2.00;99.90;;;;;;5095025;28;20020;-71
2021/01/15 10:09:56;;;;;;;55.88;26.38;;;2.00;99.90;;;;;;5095125;28;20030;-71
2021/01/15 10:12:21;;;;;;;48.58;24.67;;;1.90;99.90;;;;;;5093915;28;20024;-73
2021/01/15 10:14:47;;;;;;;50.83;25.08;;;2.00;99.90;;;;;;5095066;28;20048;-73
2021/01/15 10:17:12;;;;;;;51.50;25.70;;;2.00;99.90;;;;;;5094858;28;20028;-73
2021/01/15 10:19:38;;;;;;;53.05;25.48;;;2.00;99.90;;;;;;5093358;28;20036;-73
2021/01/15 10:22:03;;;;;;;52.30;24.90;;;2.00;99.90;;;;;;5094832;28;20031;-73
2021/01/15 10:24:29;;;;;;;53.13;25.48;;;2.00;99.90;;;;;;5094625;28;20024;-73
2021/01/15 10:26:54;;;;;;;52.92;24.73;;;2.00;99.90;;;;;;5094725;28;20385;-73
2021/01/15 10:29:20;;;;;;;52.17;24.58;;;2.00;99.90;;;;;;5094490;28;20028;-73
2021/01/15 10:31:50;;;;;;;51.17;24.92;;;2.00;99.90;;;;;;5093250;28;20042;-73
2021/01/15 10:34:16;;;;;;;57.38;26.25;;;2.20;99.90;;;;;;5094469;28;20465;-73
2021/01/15 10:36:43;;;;;;;48.05;24.33;;;2.20;99.90;;;;;;5094181;28;20020;-72
2021/01/15 10:39:09;;;;;;;51.67;24.67;;;2.30;99.90;;;;;;5093380;28;20103;-73
2021/01/15 10:41:37;;;;;;;52.33;25.38;;;2.30;99.90;;;;;;5094386;28;20046;-73
2021/01/15 10:44:06;;;;;;;45.08;22.73;;;2.40;99.90;;;;;;5094155;28;20384;-71
2021/01/15 10:46:36;;;;;;;50.13;23.77;;;2.30;99.90;;;;;;5093729;28;20043;-70
2021/01/15 10:49:03;;;;;;;44.28;22.15;;;2.20;99.90;;;;;;5094176;28;20370;-73
2021/01/15 10:51:29;;;;;;;51.08;24.60;;;2.30;99.90;;;;;;5094539;28;20028;-71
2021/01/15 10:53:55;;;;;;;46.78;22.25;;;2.30;99.90;;;;;;5094106;28;20016;-72
2021/01/15 10:56:20;;;;;;;47.67;22.88;;;2.40;99.90;;;;;;5093343;28;20130;-73
2021/01/15 10:58:46;;;;;;;48.00;23.67;;;2.40;99.90;;;;;;5092451;28;20031;-72
2021/01/15 11:01:11;;;;;;;45.08;22.50;;;2.40;99.90;;;;;;5094103;28;20024;-72
2021/01/15 11:03:37;;;;;;;42.53;21.70;;;2.40;99.90;;;;;;5094139;28;20088;-72
2021/01/15 11:06:02;;;;;;;45.00;23.52;;;2.50;99.90;;;;;;5075476;28;20032;-71
2021/01/15 11:08:28;;;;;;;42.78;21.50;;;2.50;99.90;;;;;;5093067;28;20518;-73
2021/01/15 11:10:53;;;;;;;39.85;21.15;;;2.60;99.90;;;;;;5094013;28;20024;-73
2021/01/15 11:13:19;;;;;;;42.78;22.38;;;2.40;99.90;;;;;;5092011;28;20021;-74
2021/01/15 11:15:45;;;;;;;41.50;21.20;;;2.40;99.90;;;;;;5092895;28;20490;-72
2021/01/15 11:18:10;;;;;;;44.97;22.55;;;2.50;99.90;;;;;;5092565;28;20028;-73
2021/01/15 11:20:35;;;;;;;47.20;22.30;;;2.50;99.90;;;;;;5092266;28;20489;-73
2021/01/15 11:23:01;;;;;;;38.58;19.05;;;2.50;99.90;;;;;;5092836;28;20043;-73
2021/01/15 11:25:26;;;;;;;52.60;26.70;;;2.40;99.90;;;;;;5092699;28;20028;-73
2021/01/15 11:27:52;;;;;;;43.92;22.23;;;2.40;99.90;;;;;;5093188;28;20028;-73
2021/01/15 11:30:18;;;;;;;48.65;23.83;;;2.40;99.90;;;;;;5092914;28;20469;-73
2021/01/15 11:32:43;;;;;;;44.25;20.33;;;2.30;99.90;;;;;;5093002;28;20059;-73
2021/01/15 11:35:10;;;;;;;45.13;21.92;;;2.30;99.90;;;;;;5092342;28;20493;-73
2021/01/15 11:37:36;;;;;;;42.63;21.67;;;2.20;99.90;;;;;;5093031;28;20024;-73
2021/01/15 11:40:04;;;;;;;45.13;21.15;;;2.20;99.90;;;;;;5094046;28;20024;-73
2021/01/15 11:42:30;;;;;;;45.88;22.13;;;2.20;99.90;;;;;;5092945;28;20028;-73
2021/01/15 11:44:55;;;;;;;45.38;21.63;;;2.20;99.90;;;;;;5093286;28;20020;-73
2021/01/15 11:47:21;;;;;;;39.80;21.25;;;2.30;99.90;;;;;;5092926;28;20020;-72
2021/01/15 11:49:46;;;;;;;42.53;20.60;;;2.30;99.90;;;;;;5092213;28;20055;-75
2021/01/15 11:52:12;;;;;;;43.05;20.67;;;2.30;99.90;;;;;;5095846;28;20391;-73
2021/01/15 11:54:37;;;;;;;44.65;21.23;;;2.30;99.90;;;;;;5093290;28;20028;-73
2021/01/15 11:57:03;;;;;;;40.63;20.33;;;2.30;99.90;;;;;;5090896;28;20397;-72
2021/01/15 11:59:29;;;;;;;43.25;20.25;;;2.30;99.90;;;;;;5090652;28;20032;-73
2021/01/15 12:01:56;;;;;;;38.22;20.00;;;2.40;99.90;;;;;;5092995;28;20035;-71
2021/01/15 12:04:21;;;;;;;48.83;20.40;;;2.40;99.90;;;;;;5091010;28;20020;-72
2021/01/15 12:06:52;;;;;;;43.40;20.98;;;2.30;99.90;;;;;;5093185;28;20384;-72
2021/01/15 12:09:17;;;;;;;41.95;20.52;;;2.30;99.90;;;;;;5092415;28;20086;-72
2021/01/15 12:11:43;;;;;;;44.40;21.45;;;2.30;99.90;;;;;;5092646;28;20048;-72
2021/01/15 12:14:08;;;;;;;51.15;21.40;;;2.30;99.90;;;;;;5093068;28;20021;-71
2021/01/15 12:16:34;;;;;;;42.45;20.63;;;2.20;99.90;;;;;;5093464;28;20074;-71
2021/01/15 12:19:00;;;;;;;44.80;21.45;;;2.30;99.90;;;;;;5092289;28;20097;-71
2021/01/15 12:21:26;;;;;;;45.95;21.40;;;2.20;99.90;;;;;;5092885;28;20024;-71
2021/01/15 12:23:51;;;;;;;42.67;20.55;;;2.30;99.90;;;;;;5093305;28;20034;-71
2021/01/15 12:26:17;;;;;;;41.67;21.58;;;2.30;99.90;;;;;;5091457;28;20455;-71
2021/01/15 12:28:43;;;;;;;39.40;19.95;;;2.20;99.90;;;;;;5092976;28;20032;-71
2021/01/15 12:31:09;;;;;;;42.60;19.90;;;2.20;99.90;;;;;;5091385;28;20024;-71
2021/01/15 12:33:34;;;;;;;41.97;20.10;;;2.20;99.90;;;;;;5092715;28;20084;-71
2021/01/15 12:36:00;;;;;;;42.90;21.63;;;2.20;99.90;;;;;;5092698;28;20032;-71
2021/01/15 12:38:25;;;;;;;38.75;19.10;;;2.20;99.90;;;;;;5091907;28;20038;-71
2021/01/15 12:40:52;;;;;;;45.13;22.48;;;2.20;99.90;;;;;;5091226;28;20423;-71
2021/01/15 12:43:18;;;;;;;44.75;22.40;;;2.20;99.90;;;;;;5092983;28;20036;-72
2021/01/15 12:45:47;;;;;;;44.90;21.20;;;2.20;99.90;;;;;;5092615;28;20103;-72
2021/01/15 12:48:14;;;;;;;45.20;21.35;;;2.20;99.90;;;;;;5092146;28;20036;-73
2021/01/15 12:50:41;;;;;;;45.67;21.35;;;2.10;99.90;;;;;;5092874;28;20469;-72
2021/01/15 12:53:06;;;;;;;35.85;19.77;;;2.10;99.90;;;;;;5091880;28;20024;-73
2021/01/15 12:55:32;;;;;;;49.55;21.38;;;2.10;99.90;;;;;;5095070;28;20413;-72
2021/01/15 12:58:00;;;;;;;43.83;22.45;;;2.00;99.90;;;;;;5096586;28;20027;-71
2021/01/15 13:00:27;;;;;;;42.15;20.40;;;2.10;99.90;;;;;;5095274;28;20074;-71